createdAt,value
2017-05-06T00:07:20.729Z,6.8
2017-05-06T00:17:35.620Z,6.8
2017-05-06T00:27:50.570Z,6.8
2017-05-06T00:38:05.018Z,6.6
2017-05-06T00:48:20.112Z,6.6
2017-05-06T00:58:34.937Z,6.6
2017-05-06T01:08:49.298Z,6.8
2017-05-06T01:19:03.035Z,6.9
2017-05-06T01:29:17.409Z,6.9
2017-05-06T01:39:31.418Z,7
2017-05-06T01:49:45.204Z,6.9
2017-05-06T01:59:59.371Z,6.8
2017-05-06T02:10:14.066Z,6.6
2017-05-06T02:20:29.135Z,6.6
2017-05-06T02:30:44.759Z,6.5
2017-05-06T02:40:59.031Z,6.4
2017-05-06T02:51:13.782Z,6.4
2017-05-06T03:01:29.268Z,6.3
2017-05-06T03:11:43.957Z,6.2
2017-05-06T03:21:57.951Z,6.3
2017-05-06T03:32:12.728Z,6.3
2017-05-06T03:42:27.961Z,6.5
2017-05-06T03:52:42.491Z,6.4
2017-05-06T04:02:56.783Z,6.6
2017-05-06T04:13:11.058Z,6.6
2017-05-06T04:23:26.004Z,6.6
2017-05-06T04:33:39.735Z,6.9
2017-05-06T04:43:55.237Z,6.9
2017-05-06T04:54:10.446Z,7.2
2017-05-06T05:04:25.370Z,7.4
2017-05-06T05:14:39.332Z,7.6
2017-05-06T05:24:54.505Z,7.5
2017-05-06T05:35:10.096Z,7.8
2017-05-06T05:45:24.096Z,7.9
2017-05-06T05:55:38.446Z,8.2
2017-05-06T06:05:52.178Z,8.8
2017-05-06T06:16:06.282Z,9.4
2017-05-06T06:26:21.361Z,9.7
2017-05-06T06:36:35.631Z,10
2017-05-06T06:46:50.101Z,10.8
2017-05-06T06:57:04.219Z,11.2
2017-05-06T07:07:19.860Z,11.8
2017-05-06T07:17:34.079Z,12
2017-05-06T07:27:48.994Z,12.6
2017-05-06T07:38:03.219Z,13.3
2017-05-06T07:48:17.928Z,13.2
2017-05-06T07:58:32.821Z,14
2017-05-06T08:08:46.802Z,14.1
2017-05-06T08:19:02.536Z,13.7
2017-05-06T08:29:17.357Z,14
2017-05-06T08:39:32.582Z,15.8
2017-05-06T08:49:46.620Z,15.4
2017-05-06T09:00:02.397Z,14.7
2017-05-06T09:10:17.069Z,14.9
2017-05-06T09:20:31.545Z,16.2
2017-05-06T09:30:46.814Z,16.3
2017-05-06T09:41:01.335Z,17
2017-05-06T09:51:15.868Z,16.9
2017-05-06T10:01:30.591Z,16.5
2017-05-06T10:11:46.026Z,16.2
2017-05-06T10:22:00.088Z,18
2017-05-06T10:32:15.256Z,17.8
2017-05-06T10:42:29.484Z,18.4
2017-05-06T10:52:45.120Z,18.9
2017-05-06T11:02:59.458Z,18.4
2017-05-06T11:13:13.667Z,18.8
2017-05-06T11:23:28.625Z,17.1
2017-05-06T11:33:43.914Z,17.8
2017-05-06T11:43:59.670Z,18.6
2017-05-06T11:54:14.713Z,17.4
2017-05-06T12:04:28.857Z,17.9
2017-05-06T12:14:43.795Z,17.1
2017-05-06T12:24:57.727Z,18.6
2017-05-06T12:35:12.853Z,17.9
2017-05-06T12:45:27.375Z,19.5
2017-05-06T12:55:43.203Z,19.3
2017-05-06T13:05:57.260Z,20
2017-05-06T13:16:12.475Z,20.3
2017-05-06T13:26:28.265Z,19.8
2017-05-06T13:36:42.917Z,20.3
2017-05-06T13:46:57.786Z,20.3
2017-05-06T13:57:12.097Z,20.3
2017-05-06T14:07:28.007Z,20.4
2017-05-06T14:17:42.485Z,21.2
2017-05-06T14:27:58.372Z,21.6
2017-05-06T14:38:13.269Z,19.6
2017-05-06T14:48:28.770Z,21
2017-05-06T14:58:42.933Z,20.4
2017-05-06T15:08:57.480Z,20
2017-05-06T15:19:12.994Z,19.6
2017-05-06T15:29:28.855Z,20.2
2017-05-06T15:39:43.106Z,19.1
2017-05-06T15:49:57.543Z,18
2017-05-06T16:00:12.003Z,20.3
2017-05-06T16:10:25.925Z,19.6
2017-05-06T16:20:39.842Z,19.6
2017-05-06T16:30:54.460Z,18.8
2017-05-06T16:41:08.516Z,19
2017-05-06T16:51:22.937Z,18.4
2017-05-06T17:01:38.093Z,18.6
2017-05-06T17:11:53.054Z,18.6
2017-05-06T17:22:07.925Z,18.2
2017-05-06T17:32:22.225Z,18.2
2017-05-06T17:42:36.569Z,17.2
2017-05-06T17:52:52.292Z,16.9
2017-05-06T18:03:06.461Z,16.8
2017-05-06T18:13:20.818Z,16.5
2017-05-06T18:23:35.489Z,16.2
2017-05-06T18:33:51.042Z,16
2017-05-06T18:44:06.431Z,15.9
2017-05-06T18:54:21.833Z,15.4
2017-05-06T19:04:37.078Z,15.2
2017-05-06T19:14:50.867Z,15
2017-05-06T19:25:04.811Z,14.9
2017-05-06T19:35:19.757Z,14.7
2017-05-06T19:45:34.361Z,14.4
2017-05-06T19:55:49.982Z,14.3
2017-05-06T20:06:04.856Z,14
2017-05-06T20:16:19.972Z,14.1
2017-05-06T20:26:35.412Z,13.8
2017-05-06T20:36:49.975Z,13.5
2017-05-06T20:47:03.831Z,13.4
2017-05-06T20:57:18.009Z,13.3
2017-05-06T21:07:33.696Z,13
2017-05-06T21:17:48.470Z,12.9
2017-05-06T21:28:02.278Z,12.8
2017-05-06T21:38:17.784Z,12.7
2017-05-06T21:48:32.087Z,12.5
2017-05-06T21:58:47.699Z,12.4
2017-05-06T22:09:02.794Z,12.1
2017-05-06T22:19:17.826Z,11.9
2017-05-06T22:29:32.398Z,11.8
2017-05-06T22:39:46.973Z,11.7
2017-05-06T22:50:02.625Z,11.6
2017-05-06T23:00:17.066Z,11.4
2017-05-06T23:10:32.180Z,11.1
2017-05-06T23:20:47.723Z,11
2017-05-06T23:31:03.451Z,11
2017-05-06T23:41:17.290Z,10.8
2017-05-06T23:51:31.849Z,10.6
